createdAt,value
2023-01-20T00:02:16.465Z,3.05
2023-01-20T00:07:18.056Z,3.15
2023-01-20T00:12:19.643Z,3.02
2023-01-20T00:17:21.208Z,2.87
2023-01-20T00:22:22.812Z,2.95
2023-01-20T00:27:24.379Z,3.02
2023-01-20T00:32:25.900Z,2.90
2023-01-20T00:37:27.485Z,2.98
2023-01-20T00:42:29.036Z,3.03
2023-01-20T00:47:30.642Z,3.08
2023-01-20T00:52:32.204Z,2.95
2023-01-20T00:57:33.788Z,3.03
2023-01-20T01:02:39.964Z,2.99
2023-01-20T01:07:42.246Z,2.98
2023-01-20T01:12:43.833Z,2.96
2023-01-20T01:17:45.597Z,2.97
2023-01-20T01:22:47.217Z,3.01
2023-01-20T01:27:48.772Z,3.07
2023-01-20T01:32:50.346Z,3.11
2023-01-20T01:37:51.980Z,3.01
2023-01-20T01:42:53.611Z,3.15
2023-01-20T01:48:10.619Z,3.17
2023-01-20T01:53:13.818Z,3.14
2023-01-20T01:58:17.863Z,3.19
2023-01-20T02:03:20.313Z,3.17
2023-01-20T02:08:21.982Z,3.18
2023-01-20T02:13:23.657Z,3.26
2023-01-20T02:18:53.840Z,3.31
2023-01-20T02:24:12.339Z,3.24
2023-01-20T02:29:26.419Z,3.18
2023-01-20T02:34:37.056Z,3.28
2023-01-20T02:40:05.179Z,3.21
2023-01-20T02:45:12.799Z,3.23
2023-01-20T02:50:38.557Z,3.31
2023-01-20T02:55:46.873Z,3.26
2023-01-20T03:00:52.190Z,3.15
2023-01-20T03:05:56.359Z,3.06
2023-01-20T03:11:06.312Z,3.15
2023-01-20T03:16:10.799Z,3.14
2023-01-20T03:21:12.981Z,3.08
2023-01-20T03:26:16.600Z,3.02
2023-01-20T03:31:24.972Z,3.02
2023-01-20T03:36:29.060Z,3.13
2023-01-20T03:41:33.612Z,2.95
2023-01-20T03:46:59.882Z,2.92
2023-01-20T03:52:09.210Z,3.00
2023-01-20T03:57:20.169Z,2.94
2023-01-20T04:02:22.568Z,2.89
2023-01-20T04:07:25.651Z,2.90
2023-01-20T04:12:27.288Z,2.75
2023-01-20T04:17:29.178Z,2.85
2023-01-20T04:22:46.726Z,2.88
2023-01-20T04:27:48.293Z,2.80
2023-01-20T04:32:49.861Z,2.73
2023-01-20T04:37:51.461Z,2.87
2023-01-20T04:42:53.062Z,2.75
2023-01-20T04:47:54.777Z,2.79
2023-01-20T04:52:56.620Z,2.58
2023-01-20T04:57:58.188Z,2.79
2023-01-20T05:02:59.833Z,2.92
2023-01-20T05:08:01.508Z,2.92
2023-01-20T05:13:03.277Z,2.90
2023-01-20T05:18:04.877Z,2.89
2023-01-20T05:23:07.043Z,2.95
2023-01-20T05:28:08.699Z,2.86
2023-01-20T05:33:10.276Z,2.85
2023-01-20T05:38:11.851Z,2.98
2023-01-20T05:43:13.412Z,2.91
2023-01-20T05:48:14.967Z,2.84
2023-01-20T05:53:18.082Z,2.91
2023-01-20T05:58:19.717Z,2.96
2023-01-20T06:03:21.503Z,2.87
2023-01-20T06:08:23.068Z,2.89
2023-01-20T06:13:24.634Z,2.82
2023-01-20T06:18:26.237Z,2.87
2023-01-20T06:23:27.882Z,2.86
2023-01-20T06:28:29.596Z,2.85
2023-01-20T06:33:31.921Z,2.83
2023-01-20T06:38:35.284Z,2.84
2023-01-20T06:43:40.081Z,2.89
2023-01-20T06:48:42.593Z,2.96
2023-01-20T06:53:44.718Z,2.80
2023-01-20T06:58:46.353Z,2.84
2023-01-20T07:03:47.947Z,3.02
2023-01-20T07:08:49.570Z,3.03
2023-01-20T07:13:51.150Z,2.75
2023-01-20T07:18:53.681Z,2.98
2023-01-20T07:23:55.603Z,2.91
2023-01-20T07:28:59.987Z,2.92
2023-01-20T07:34:01.583Z,2.86
2023-01-20T07:39:03.183Z,2.90
2023-01-20T07:44:04.865Z,2.88
2023-01-20T07:49:06.499Z,2.97
2023-01-20T07:54:11.509Z,2.90
2023-01-20T07:59:13.155Z,3.06
2023-01-20T08:04:14.772Z,2.94
2023-01-20T08:09:16.432Z,3.09
2023-01-20T08:14:18.087Z,2.99
2023-01-20T08:19:19.706Z,3.07
2023-01-20T08:24:21.305Z,3.01
2023-01-20T08:29:22.992Z,3.16
2023-01-20T08:34:24.550Z,3.16
2023-01-20T08:39:26.124Z,3.26
2023-01-20T08:44:27.727Z,3.19
2023-01-20T08:49:29.785Z,3.19
2023-01-20T08:54:34.429Z,3.25
2023-01-20T08:59:35.976Z,3.24
2023-01-20T09:04:37.983Z,3.15
2023-01-20T09:09:39.569Z,3.30
2023-01-20T09:14:41.228Z,3.33
2023-01-20T09:19:42.774Z,3.27
2023-01-20T09:24:44.348Z,3.20
2023-01-20T09:29:45.896Z,3.25
2023-01-20T09:34:47.525Z,3.33
2023-01-20T09:40:07.914Z,3.18
2023-01-20T09:45:27.287Z,3.34
2023-01-20T09:50:52.996Z,3.46
2023-01-20T09:56:00.854Z,3.54
2023-01-20T10:01:32.897Z,3.52
2023-01-20T10:06:42.733Z,3.50
2023-01-20T10:11:46.269Z,3.54
2023-01-20T10:16:55.482Z,3.53
2023-01-20T10:22:26.145Z,3.53
2023-01-20T10:27:29.652Z,3.55
2023-01-20T10:32:39.218Z,3.50
2023-01-20T10:37:41.420Z,3.55
2023-01-20T10:42:48.255Z,3.67
2023-01-20T10:48:09.591Z,3.68
2023-01-20T10:53:43.404Z,3.70
2023-01-20T10:58:46.716Z,3.55
2023-01-20T11:03:49.588Z,3.76
2023-01-20T11:08:52.492Z,3.72
2023-01-20T11:13:54.207Z,3.65
2023-01-20T11:19:04.423Z,3.67
2023-01-20T11:24:58.956Z,3.85
2023-01-20T11:30:04.696Z,3.49
2023-01-20T11:35:25.075Z,3.65
2023-01-20T11:40:28.537Z,3.80
2023-01-20T11:45:36.494Z,3.74
2023-01-20T11:50:46.550Z,3.71
2023-01-20T11:55:57.324Z,3.77
2023-01-20T12:01:02.232Z,3.64
2023-01-20T12:06:15.055Z,3.52
2023-01-20T12:11:25.263Z,3.62
2023-01-20T12:16:28.802Z,3.58
2023-01-20T12:21:36.388Z,3.63
2023-01-20T12:26:37.995Z,3.33
2023-01-20T12:31:39.761Z,3.42
2023-01-20T12:37:33.342Z,3.33
2023-01-20T12:42:59.385Z,3.41
2023-01-20T12:48:31.098Z,3.49
2023-01-20T12:53:51.152Z,3.62
2023-01-20T12:59:23.428Z,3.46
2023-01-20T13:04:45.259Z,3.54
2023-01-20T13:09:56.880Z,3.29
2023-01-20T13:15:19.112Z,3.37
2023-01-20T13:20:25.832Z,3.13
2023-01-20T13:25:28.104Z,3.25
2023-01-20T13:30:50.914Z,3.56
2023-01-20T13:35:52.662Z,3.38
2023-01-20T13:40:55.830Z,3.29
2023-01-20T13:46:03.284Z,3.21
2023-01-20T13:51:26.713Z,3.29
2023-01-20T13:56:30.571Z,3.30
2023-01-20T14:01:33.607Z,3.53
2023-01-20T14:06:35.987Z,3.37
2023-01-20T14:11:49.540Z,3.42
2023-01-20T14:16:51.538Z,3.44
2023-01-20T14:21:57.991Z,3.06
2023-01-20T14:27:17.382Z,3.21
2023-01-20T14:32:22.496Z,3.20
2023-01-20T14:37:33.734Z,3.12
2023-01-20T14:42:36.189Z,3.09
2023-01-20T14:47:38.023Z,3.15
2023-01-20T14:52:39.780Z,3.20
2023-01-20T14:57:43.590Z,2.97
2023-01-20T15:03:11.954Z,3.26
2023-01-20T15:08:24.331Z,3.13
2023-01-20T15:13:28.021Z,2.83
2023-01-20T15:18:29.631Z,3.28
2023-01-20T15:23:34.775Z,3.17
2023-01-20T15:28:43.772Z,3.00
2023-01-20T15:33:45.457Z,3.13
2023-01-20T15:38:47.385Z,3.05
2023-01-20T15:43:51.298Z,3.18
2023-01-20T15:48:52.876Z,2.99
2023-01-20T15:53:54.464Z,3.06
2023-01-20T15:58:56.561Z,2.99
2023-01-20T16:03:58.302Z,2.84
2023-01-20T16:09:11.352Z,2.96
2023-01-20T16:14:12.987Z,2.82
2023-01-20T16:19:14.898Z,2.69
2023-01-20T16:24:16.488Z,2.87
2023-01-20T16:29:18.058Z,2.89
2023-01-20T16:34:19.659Z,2.81
2023-01-20T16:39:21.226Z,2.78
2023-01-20T16:44:22.767Z,2.93
2023-01-20T16:49:24.371Z,2.77
2023-01-20T16:54:26.036Z,2.68
2023-01-20T16:59:27.638Z,2.54
2023-01-20T17:04:30.509Z,2.51
2023-01-20T17:09:32.186Z,2.69
2023-01-20T17:14:33.830Z,2.43
2023-01-20T17:19:35.423Z,2.72
2023-01-20T17:24:39.189Z,2.74
2023-01-20T17:29:40.930Z,2.74
2023-01-20T17:34:42.489Z,2.45
2023-01-20T17:39:44.095Z,2.49
2023-01-20T17:44:45.674Z,2.62
2023-01-20T17:49:47.332Z,2.69
2023-01-20T17:54:49.581Z,2.75
2023-01-20T17:59:51.359Z,2.72
2023-01-20T18:04:52.987Z,2.66
2023-01-20T18:09:54.588Z,2.76
2023-01-20T18:14:57.702Z,2.68
2023-01-20T18:19:59.265Z,2.64
2023-01-20T18:25:00.833Z,2.62
2023-01-20T18:30:02.450Z,2.51
2023-01-20T18:35:04.268Z,2.45
2023-01-20T18:40:06.501Z,2.63
2023-01-20T18:45:08.922Z,2.52
2023-01-20T18:50:11.798Z,2.46
2023-01-20T18:55:13.470Z,2.45
2023-01-20T19:00:15.416Z,2.46
2023-01-20T19:05:17.125Z,2.40
2023-01-20T19:10:18.879Z,2.32
2023-01-20T19:15:20.583Z,2.39
2023-01-20T19:20:22.188Z,2.79
2023-01-20T19:25:29.470Z,2.40
2023-01-20T19:30:31.324Z,2.32
2023-01-20T19:35:33.664Z,2.48
2023-01-20T19:40:35.265Z,2.45
2023-01-20T19:45:45.429Z,2.19
2023-01-20T19:50:47.729Z,2.15
2023-01-20T19:55:49.551Z,2.23
2023-01-20T20:00:51.113Z,1.94
2023-01-20T20:05:52.753Z,2.01
2023-01-20T20:10:54.669Z,2.17
2023-01-20T20:16:03.517Z,2.03
2023-01-20T20:21:05.882Z,2.16
2023-01-20T20:26:11.703Z,2.09
2023-01-20T20:31:13.316Z,1.86
2023-01-20T20:36:15.694Z,2.01
2023-01-20T20:41:17.755Z,1.85
2023-01-20T20:46:19.428Z,1.81
2023-01-20T20:51:23.227Z,1.98
2023-01-20T20:56:27.826Z,1.95
2023-01-20T21:01:31.573Z,1.86
2023-01-20T21:06:33.676Z,1.93
2023-01-20T21:11:37.858Z,1.53
2023-01-20T21:16:40.041Z,1.91
2023-01-20T21:21:41.760Z,1.69
2023-01-20T21:26:43.427Z,1.78
2023-01-20T21:31:46.381Z,1.63
2023-01-20T21:36:47.980Z,1.91
2023-01-20T21:41:49.609Z,1.56
2023-01-20T21:46:51.272Z,1.86
2023-01-20T21:52:12.227Z,1.55
2023-01-20T21:57:14.600Z,1.68
2023-01-20T22:02:16.365Z,1.46
2023-01-20T22:07:18.084Z,1.59
2023-01-20T22:12:19.652Z,1.57
2023-01-20T22:17:21.233Z,1.48
2023-01-20T22:22:23.533Z,1.33
2023-01-20T22:27:25.127Z,1.56
2023-01-20T22:32:27.117Z,1.53
2023-01-20T22:37:31.097Z,1.65
2023-01-20T22:42:32.700Z,1.65
2023-01-20T22:47:34.356Z,1.65
2023-01-20T22:52:36.004Z,1.55
2023-01-20T22:57:37.786Z,1.66
2023-01-20T23:02:39.427Z,1.53
2023-01-20T23:07:41.066Z,1.34
2023-01-20T23:12:42.634Z,1.52
2023-01-20T23:17:44.330Z,1.44
2023-01-20T23:22:45.875Z,1.56
2023-01-20T23:27:47.427Z,1.51
2023-01-20T23:32:49.039Z,1.59
2023-01-20T23:37:50.748Z,1.68
2023-01-20T23:42:52.320Z,1.38
2023-01-20T23:47:54.062Z,1.36
2023-01-20T23:52:55.654Z,1.22
2023-01-20T23:57:57.223Z,1.11
